Time;durP1;ratioP1;P1;durP2;ratioP2;P2;SDS_P1;SDS_P2;PMS_P1;PMS_P2;Temp;Humidity;BMP_temperature;BMP_pressure;BME280_temperature;BME280_humidity;BME280_pressure;Samples;Min_cycle;Max_cycle;Signal;HPM_P1;HPM_P2
2023/05/11 00:01:08;;;;;;;7.47;4.00;;;;;;;;;;4992774;28;20030;-72
2023/05/11 00:03:34;;;;;;;10.00;4.03;;;;;;;;;;4996626;28;20029;-70
2023/05/11 00:06:00;;;;;;;7.53;4.13;;;;;;;;;;5011210;28;20033;-71
2023/05/11 00:08:25;;;;;;;7.20;3.70;;;;;;;;;;5001150;28;20034;-66
2023/05/11 00:10:51;;;;;;;6.93;3.88;;;;;;;;;;4992869;28;20494;-71
2023/05/11 00:13:17;;;;;;;6.93;3.78;;;;;;;;;;4992843;28;20503;-71
2023/05/11 00:15:42;;;;;;;6.40;3.67;;;;;;;;;;4985863;28;20031;-71
2023/05/11 00:18:08;;;;;;;5.55;3.42;;;;;;;;;;4992671;28;20431;-71
2023/05/11 00:20:34;;;;;;;6.35;3.45;;;;;;;;;;4992235;28;20038;-71
2023/05/11 00:22:59;;;;;;;9.70;3.83;;;;;;;;;;4992681;28;20088;-70
2023/05/11 00:25:25;;;;;;;7.30;3.60;;;;;;;;;;4992737;28;20496;-70
2023/05/11 00:27:50;;;;;;;5.65;3.45;;;;;;;;;;4986682;28;20034;-71
2023/05/11 00:30:16;;;;;;;5.78;3.78;;;;;;;;;;4992390;28;20431;-70
2023/05/11 00:32:43;;;;;;;8.85;4.50;;;;;;;;;;4992619;28;20106;-71
2023/05/11 00:35:10;;;;;;;8.88;3.70;;;;;;;;;;4993112;28;20121;-71
2023/05/11 00:37:39;;;;;;;7.25;4.07;;;;;;;;;;4992413;28;20033;-69
2023/05/11 00:40:05;;;;;;;8.40;3.47;;;;;;;;;;5005787;28;20034;-70
2023/05/11 00:42:31;;;;;;;5.13;3.65;;;;;;;;;;5012139;28;20107;-69
2023/05/11 00:44:57;;;;;;;6.55;4.10;;;;;;;;;;5011569;28;20034;-68
2023/05/11 00:47:22;;;;;;;8.25;4.15;;;;;;;;;;5010065;28;20507;-65
2023/05/11 00:49:49;;;;;;;8.10;4.75;;;;;;;;;;4985639;28;20044;-71
2023/05/11 00:52:15;;;;;;;9.90;4.18;;;;;;;;;;5008361;28;20033;-68
2023/05/11 00:54:41;;;;;;;6.53;3.40;;;;;;;;;;5002500;28;20530;-67
2023/05/11 00:57:07;;;;;;;7.25;4.05;;;;;;;;;;4995608;28;20022;-65
2023/05/11 00:59:33;;;;;;;7.60;3.50;;;;;;;;;;4996045;28;20399;-70
2023/05/11 01:01:58;;;;;;;5.10;3.67;;;;;;;;;;4995924;28;20027;-67
2023/05/11 01:04:24;;;;;;;5.97;3.33;;;;;;;;;;4999598;28;20030;-70
2023/05/11 01:07:15;;;;;;;6.70;4.22;;;;;;;;;;5015710;28;20459;-69
2023/05/11 01:09:46;;;;;;;6.53;3.70;;;;;;;;;;5006763;28;20098;-71
2023/05/11 01:12:20;;;;;;;6.80;3.95;;;;;;;;;;4995897;28;20109;-68
2023/05/11 01:15:06;;;;;;;8.80;4.53;;;;;;;;;;4995860;28;20101;-69
2023/05/11 01:17:53;;;;;;;5.78;3.42;;;;;;;;;;4995815;28;20503;-69
2023/05/11 01:20:25;;;;;;;9.70;4.25;;;;;;;;;;4995686;28;20040;-66
2023/05/11 01:23:06;;;;;;;6.35;3.85;;;;;;;;;;4995480;28;20073;-70
2023/05/11 01:25:59;;;;;;;6.82;4.40;;;;;;;;;;4995828;28;20504;-66
2023/05/11 01:28:43;;;;;;;10.35;3.92;;;;;;;;;;4995599;28;20026;-66
2023/05/11 01:31:10;;;;;;;6.28;3.80;;;;;;;;;;4995508;28;20038;-69
2023/05/11 01:33:56;;;;;;;8.10;4.30;;;;;;;;;;4995653;28;20034;-64
2023/05/11 01:36:27;;;;;;;8.98;4.20;;;;;;;;;;4994979;28;20490;-64
2023/05/11 01:38:54;;;;;;;7.47;3.58;;;;;;;;;;4995343;28;20030;-70
2023/05/11 01:41:22;;;;;;;8.32;4.43;;;;;;;;;;4995479;28;20139;-71
2023/05/11 01:43:53;;;;;;;5.80;3.60;;;;;;;;;;4993933;28;20105;-71
2023/05/11 01:46:20;;;;;;;8.73;4.10;;;;;;;;;;4994407;28;20173;-69
2023/05/11 01:48:50;;;;;;;6.50;3.55;;;;;;;;;;4991925;28;20118;-69
2023/05/11 01:51:17;;;;;;;10.15;4.22;;;;;;;;;;5002367;28;20116;-70
2023/05/11 01:53:44;;;;;;;10.02;4.35;;;;;;;;;;5014765;28;20026;-67
2023/05/11 01:56:10;;;;;;;8.05;3.75;;;;;;;;;;5014685;28;20118;-70
2023/05/11 01:58:39;;;;;;;11.70;4.60;;;;;;;;;;5014574;28;20364;-68
2023/05/11 02:01:05;;;;;;;7.28;3.40;;;;;;;;;;5008029;28;20479;-70
2023/05/11 02:03:34;;;;;;;9.30;4.22;;;;;;;;;;4991843;28;20034;-67
2023/05/11 02:06:01;;;;;;;5.78;3.72;;;;;;;;;;4986382;28;20057;-67
2023/05/11 02:08:30;;;;;;;6.63;3.65;;;;;;;;;;4985246;28;20050;-67
2023/05/11 02:10:57;;;;;;;7.13;4.22;;;;;;;;;;4984270;28;20101;-65
2023/05/11 02:13:23;;;;;;;4.78;3.15;;;;;;;;;;4985091;28;20034;-65
2023/05/11 02:15:51;;;;;;;7.40;4.32;;;;;;;;;;4983010;28;20026;-66
2023/05/11 02:18:18;;;;;;;5.50;3.20;;;;;;;;;;4983474;28;20045;-71
2023/05/11 02:20:46;;;;;;;7.25;4.32;;;;;;;;;;4983543;28;20061;-66
2023/05/11 02:23:12;;;;;;;7.35;3.97;;;;;;;;;;4984763;28;20033;-64
2023/05/11 02:25:39;;;;;;;8.90;4.68;;;;;;;;;;4983210;28;20015;-65
2023/05/11 02:28:05;;;;;;;6.40;3.97;;;;;;;;;;4983375;28;20026;-67
2023/05/11 02:30:33;;;;;;;8.40;4.32;;;;;;;;;;4984854;28;20034;-70
2023/05/11 02:33:04;;;;;;;6.57;3.80;;;;;;;;;;4983348;28;20030;-71
2023/05/11 02:35:32;;;;;;;7.38;4.00;;;;;;;;;;4994845;28;20030;-67
2023/05/11 02:38:00;;;;;;;13.65;4.20;;;;;;;;;;4994594;28;20041;-65
2023/05/11 02:40:30;;;;;;;6.55;4.45;;;;;;;;;;4994407;28;20026;-71
2023/05/11 02:42:59;;;;;;;6.87;4.40;;;;;;;;;;4994620;28;20373;-65
2023/05/11 02:45:30;;;;;;;5.55;4.00;;;;;;;;;;4994573;28;20326;-66
2023/05/11 02:47:57;;;;;;;6.50;4.15;;;;;;;;;;4994396;28;20125;-64
2023/05/11 02:50:27;;;;;;;8.98;4.20;;;;;;;;;;4983125;28;20125;-67
2023/05/11 02:52:55;;;;;;;8.90;4.30;;;;;;;;;;4975004;28;20030;-66
2023/05/11 02:55:22;;;;;;;7.68;3.88;;;;;;;;;;4974745;28;20022;-68
2023/05/11 02:57:48;;;;;;;5.65;3.97;;;;;;;;;;4974840;28;20038;-71
2023/05/11 03:00:13;;;;;;;9.10;4.53;;;;;;;;;;4974872;28;20481;-66
2023/05/11 03:02:39;;;;;;;9.80;4.40;;;;;;;;;;4974759;28;20063;-67
2023/05/11 03:05:04;;;;;;;5.68;4.03;;;;;;;;;;4974775;28;20027;-65
2023/05/11 03:07:33;;;;;;;10.73;4.43;;;;;;;;;;4974846;28;20039;-63
2023/05/11 03:10:00;;;;;;;7.18;3.95;;;;;;;;;;4974419;28;20054;-65
2023/05/11 03:12:30;;;;;;;8.98;4.70;;;;;;;;;;4973337;28;20054;-65
2023/05/11 03:14:57;;;;;;;10.30;4.40;;;;;;;;;;4974673;28;20085;-64
2023/05/11 03:17:23;;;;;;;7.13;4.45;;;;;;;;;;4974453;28;20043;-70
2023/05/11 03:19:50;;;;;;;6.60;3.97;;;;;;;;;;4973865;28;20054;-69
2023/05/11 03:22:15;;;;;;;11.30;4.32;;;;;;;;;;4974185;28;20492;-71
2023/05/11 03:24:41;;;;;;;6.00;4.10;;;;;;;;;;4974076;28;20035;-70
2023/05/11 03:27:07;;;;;;;6.85;4.13;;;;;;;;;;4974315;28;20038;-65
2023/05/11 03:29:37;;;;;;;10.80;4.10;;;;;;;;;;4974424;28;20022;-70
2023/05/11 03:32:03;;;;;;;7.22;4.47;;;;;;;;;;4974379;28;20062;-71
2023/05/11 03:34:28;;;;;;;9.85;3.83;;;;;;;;;;4974267;28;20031;-71
2023/05/11 03:36:56;;;;;;;7.38;4.38;;;;;;;;;;4984978;28;20030;-66
2023/05/11 03:39:22;;;;;;;8.48;4.20;;;;;;;;;;4993049;28;20049;-69
2023/05/11 03:41:51;;;;;;;11.15;4.53;;;;;;;;;;4993505;28;20018;-71
2023/05/11 03:44:20;;;;;;;6.72;4.20;;;;;;;;;;4993462;28;20496;-69
2023/05/11 03:46:47;;;;;;;7.90;4.82;;;;;;;;;;4993514;28;20026;-66
2023/05/11 03:49:14;;;;;;;7.40;4.47;;;;;;;;;;4993331;28;20400;-68
2023/05/11 03:51:40;;;;;;;8.90;4.60;;;;;;;;;;4979777;28;20126;-65
2023/05/11 03:54:06;;;;;;;8.77;4.28;;;;;;;;;;4973784;28;20473;-65
2023/05/11 03:56:35;;;;;;;11.32;4.38;;;;;;;;;;4973508;28;20088;-69
2023/05/11 03:59:02;;;;;;;9.10;4.10;;;;;;;;;;4973988;28;20503;-65
2023/05/11 04:01:28;;;;;;;11.52;5.35;;;;;;;;;;4973899;28;20059;-69
2023/05/11 04:03:54;;;;;;;9.32;4.35;;;;;;;;;;4973957;28;20137;-65
2023/05/11 04:06:19;;;;;;;9.05;4.32;;;;;;;;;;4973924;28;20492;-65
2023/05/11 04:08:45;;;;;;;8.35;4.38;;;;;;;;;;4973504;28;20062;-65
2023/05/11 04:11:10;;;;;;;10.70;4.35;;;;;;;;;;4973704;28;20038;-69
2023/05/11 04:13:36;;;;;;;8.52;4.13;;;;;;;;;;4973825;28;20057;-70
2023/05/11 04:16:02;;;;;;;7.60;4.32;;;;;;;;;;4973911;28;20039;-65
2023/05/11 04:18:28;;;;;;;10.85;4.43;;;;;;;;;;4973747;28;20074;-71
2023/05/11 04:20:53;;;;;;;10.20;4.28;;;;;;;;;;4973821;28;20113;-66
2023/05/11 04:23:19;;;;;;;10.48;4.32;;;;;;;;;;4971920;28;20106;-69
2023/05/11 04:25:44;;;;;;;7.32;4.00;;;;;;;;;;4973499;28;20384;-71
2023/05/11 04:28:10;;;;;;;7.38;4.13;;;;;;;;;;4973702;28;20026;-72
2023/05/11 04:30:35;;;;;;;7.18;3.97;;;;;;;;;;4974628;28;20031;-67
2023/05/11 04:33:01;;;;;;;6.90;4.07;;;;;;;;;;4977413;28;20393;-71
2023/05/11 04:35:26;;;;;;;9.07;4.30;;;;;;;;;;4977376;28;20050;-71
2023/05/11 04:37:52;;;;;;;14.05;5.00;;;;;;;;;;4995644;28;20023;-66
2023/05/11 04:40:17;;;;;;;13.07;4.28;;;;;;;;;;4996909;28;20393;-65
2023/05/11 04:42:42;;;;;;;7.15;4.10;;;;;;;;;;4996845;28;20380;-70
2023/05/11 04:45:08;;;;;;;8.90;4.15;;;;;;;;;;4996494;28;20034;-70
2023/05/11 04:47:34;;;;;;;8.70;4.13;;;;;;;;;;4996521;28;20074;-68
2023/05/11 04:49:59;;;;;;;8.25;4.32;;;;;;;;;;4996719;28;20061;-69
2023/05/11 04:52:25;;;;;;;12.05;4.20;;;;;;;;;;4987076;28;20031;-65
2023/05/11 04:54:50;;;;;;;7.78;4.20;;;;;;;;;;4975867;28;20030;-71
2023/05/11 04:57:16;;;;;;;9.00;4.57;;;;;;;;;;4977001;28;20033;-69
2023/05/11 04:59:41;;;;;;;11.60;4.90;;;;;;;;;;4977127;28;20437;-66
2023/05/11 05:02:06;;;;;;;12.40;4.80;;;;;;;;;;4977154;28;20053;-66
2023/05/11 05:04:32;;;;;;;14.18;5.00;;;;;;;;;;4976935;28;20031;-72
2023/05/11 05:06:57;;;;;;;12.98;5.38;;;;;;;;;;4976742;28;20030;-67
2023/05/11 05:09:23;;;;;;;13.35;4.78;;;;;;;;;;4976796;28;20035;-66
2023/05/11 05:11:48;;;;;;;11.13;4.68;;;;;;;;;;4976840;28;20134;-69
2023/05/11 05:14:13;;;;;;;7.55;4.40;;;;;;;;;;4976739;28;20026;-63
2023/05/11 05:16:39;;;;;;;8.00;4.13;;;;;;;;;;4976550;28;20030;-70
2023/05/11 05:19:04;;;;;;;8.55;4.35;;;;;;;;;;4976697;28;20436;-70
2023/05/11 05:21:31;;;;;;;9.93;4.40;;;;;;;;;;4976323;28;20019;-68
2023/05/11 05:23:56;;;;;;;5.78;4.13;;;;;;;;;;4975975;28;20106;-66
2023/05/11 05:26:22;;;;;;;8.63;4.05;;;;;;;;;;4976534;28;20101;-65
2023/05/11 05:28:47;;;;;;;9.52;4.35;;;;;;;;;;4976529;28;20026;-68
2023/05/11 05:31:12;;;;;;;6.70;3.70;;;;;;;;;;4976334;28;20082;-68
2023/05/11 05:33:38;;;;;;;10.23;4.45;;;;;;;;;;4976258;28;20438;-69
2023/05/11 05:36:03;;;;;;;13.88;5.25;;;;;;;;;;4979943;28;20105;-66
2023/05/11 05:38:29;;;;;;;11.70;4.90;;;;;;;;;;4995499;28;20105;-64
2023/05/11 05:40:54;;;;;;;14.98;5.20;;;;;;;;;;4995248;28;20109;-68
2023/05/11 05:43:20;;;;;;;11.43;5.18;;;;;;;;;;4995613;28;20018;-64
2023/05/11 05:45:45;;;;;;;12.35;4.97;;;;;;;;;;4995658;28;20022;-65
2023/05/11 05:48:10;;;;;;;9.43;4.57;;;;;;;;;;4995530;28;20097;-63
2023/05/11 05:50:36;;;;;;;8.73;5.35;;;;;;;;;;4995141;28;20022;-65
2023/05/11 05:53:01;;;;;;;13.38;4.82;;;;;;;;;;4992055;28;20088;-63
2023/05/11 05:55:27;;;;;;;11.98;4.78;;;;;;;;;;4976117;28;20029;-63
2023/05/11 05:57:53;;;;;;;11.77;5.40;;;;;;;;;;4975838;28;20139;-64
2023/05/11 06:00:18;;;;;;;13.98;5.00;;;;;;;;;;4976011;28;20038;-68
2023/05/11 06:02:44;;;;;;;14.68;5.28;;;;;;;;;;4975939;28;20480;-64
2023/05/11 06:05:09;;;;;;;10.63;4.70;;;;;;;;;;4975645;28;20049;-65
2023/05/11 06:07:34;;;;;;;14.60;4.63;;;;;;;;;;4975737;28;20034;-64
2023/05/11 06:10:00;;;;;;;7.85;4.80;;;;;;;;;;4975866;28;20113;-63
2023/05/11 06:12:25;;;;;;;12.93;5.05;;;;;;;;;;4975727;28;20491;-70
2023/05/11 06:14:51;;;;;;;15.75;5.13;;;;;;;;;;4975796;28;20031;-70
2023/05/11 06:17:16;;;;;;;12.75;5.20;;;;;;;;;;4975603;28;20035;-70
2023/05/11 06:19:42;;;;;;;8.70;4.63;;;;;;;;;;4975594;28;20370;-67
2023/05/11 06:22:08;;;;;;;13.73;4.68;;;;;;;;;;4975531;28;20023;-67
2023/05/11 06:24:33;;;;;;;15.95;5.18;;;;;;;;;;4975289;28;20041;-65
2023/05/11 06:26:59;;;;;;;9.10;5.05;;;;;;;;;;4975391;28;20026;-68
2023/05/11 06:29:24;;;;;;;11.48;4.90;;;;;;;;;;4975304;28;20030;-71
2023/05/11 06:31:51;;;;;;;16.67;5.38;;;;;;;;;;4975102;28;20034;-65
2023/05/11 06:34:18;;;;;;;16.15;6.63;;;;;;;;;;4975359;28;20023;-64
2023/05/11 06:36:44;;;;;;;10.80;5.55;;;;;;;;;;4984599;28;20030;-63
2023/05/11 06:39:09;;;;;;;21.75;7.03;;;;;;;;;;4994583;28;20388;-66
2023/05/11 06:41:35;;;;;;;13.43;4.60;;;;;;;;;;4994584;28;20026;-65
2023/05/11 06:44:00;;;;;;;9.40;4.63;;;;;;;;;;4994568;28;20040;-69
2023/05/11 06:46:26;;;;;;;10.63;4.43;;;;;;;;;;4994259;28;20701;-69
2023/05/11 06:48:51;;;;;;;10.15;5.13;;;;;;;;;;4994388;28;20492;-70
2023/05/11 06:51:17;;;;;;;11.88;5.00;;;;;;;;;;4994285;28;20047;-70
2023/05/11 06:53:42;;;;;;;10.32;4.70;;;;;;;;;;4989124;28;20031;-68
2023/05/11 06:56:08;;;;;;;12.68;4.93;;;;;;;;;;4974968;28;20035;-71
2023/05/11 06:58:33;;;;;;;14.63;4.65;;;;;;;;;;4974830;28;20026;-71
2023/05/11 07:00:59;;;;;;;16.65;5.03;;;;;;;;;;4974721;28;20085;-68
2023/05/11 07:03:24;;;;;;;10.05;5.30;;;;;;;;;;4988280;28;20423;-71
2023/05/11 07:05:49;;;;;;;14.65;5.28;;;;;;;;;;4994304;28;20030;-72
2023/05/11 07:08:15;;;;;;;12.27;5.30;;;;;;;;;;4993705;28;20536;-71
2023/05/11 07:10:40;;;;;;;11.90;4.60;;;;;;;;;;5005632;28;20429;-72
2023/05/11 07:13:06;;;;;;;11.90;4.57;;;;;;;;;;4993097;28;20030;-71
2023/05/11 07:15:32;;;;;;;11.40;5.30;;;;;;;;;;4993688;28;20484;-70
2023/05/11 07:17:57;;;;;;;10.82;4.55;;;;;;;;;;4993688;28;20062;-71
2023/05/11 07:20:23;;;;;;;11.52;5.35;;;;;;;;;;4993605;28;20027;-71
2023/05/11 07:22:48;;;;;;;13.85;4.95;;;;;;;;;;5009877;28;20100;-71
2023/05/11 07:25:14;;;;;;;13.02;4.40;;;;;;;;;;5001520;28;20022;-69
2023/05/11 07:27:39;;;;;;;11.15;4.75;;;;;;;;;;4993559;28;20034;-68
2023/05/11 07:30:05;;;;;;;8.90;4.43;;;;;;;;;;4993331;28;20025;-66
2023/05/11 07:32:31;;;;;;;10.23;4.32;;;;;;;;;;4993553;28;20041;-63
2023/05/11 07:34:56;;;;;;;5.20;3.33;;;;;;;;;;4993248;28;20027;-63
2023/05/11 07:37:22;;;;;;;15.40;5.00;;;;;;;;;;4993380;28;20498;-70
2023/05/11 07:39:47;;;;;;;9.25;4.15;;;;;;;;;;4993153;28;20049;-71
2023/05/11 07:42:13;;;;;;;8.10;3.78;;;;;;;;;;5008619;28;20026;-70
2023/05/11 07:44:38;;;;;;;11.13;4.75;;;;;;;;;;5012732;28;20064;-70
2023/05/11 07:47:04;;;;;;;9.98;4.63;;;;;;;;;;5012629;28;20377;-70
2023/05/11 07:49:29;;;;;;;9.38;4.57;;;;;;;;;;5013045;28;20022;-72
2023/05/11 07:51:54;;;;;;;6.40;3.78;;;;;;;;;;5012519;28;20046;-65
2023/05/11 07:54:20;;;;;;;6.68;4.20;;;;;;;;;;4994246;28;20038;-69
2023/05/11 07:56:45;;;;;;;7.60;4.07;;;;;;;;;;4984444;28;20038;-69
2023/05/11 07:59:11;;;;;;;11.35;4.30;;;;;;;;;;5008081;28;20375;-69
2023/05/11 08:01:36;;;;;;;14.75;4.57;;;;;;;;;;5003186;28;20030;-69
2023/05/11 08:04:02;;;;;;;10.57;4.03;;;;;;;;;;4992896;28;20022;-67
2023/05/11 08:06:27;;;;;;;6.50;3.15;;;;;;;;;;4993019;28;20404;-66
2023/05/11 08:08:53;;;;;;;7.03;3.70;;;;;;;;;;4993058;28;20038;-64
2023/05/11 08:11:18;;;;;;;6.03;3.47;;;;;;;;;;4993025;28;20466;-64
2023/05/11 08:13:43;;;;;;;7.80;3.30;;;;;;;;;;4992855;28;20034;-64
2023/05/11 08:16:09;;;;;;;17.60;3.28;;;;;;;;;;4992828;28;20023;-72
2023/05/11 08:18:34;;;;;;;8.02;2.78;;;;;;;;;;4993004;28;20028;-71
2023/05/11 08:21:00;;;;;;;7.32;3.67;;;;;;;;;;4992923;28;20384;-70
2023/05/11 08:23:25;;;;;;;9.18;4.28;;;;;;;;;;4993039;28;20043;-70
2023/05/11 08:25:53;;;;;;;8.75;4.35;;;;;;;;;;4992728;28;20026;-71
2023/05/11 08:28:19;;;;;;;11.13;4.28;;;;;;;;;;4992353;28;20118;-68
2023/05/11 08:30:46;;;;;;;9.55;4.05;;;;;;;;;;4992497;28;20042;-68
2023/05/11 08:33:12;;;;;;;12.10;4.18;;;;;;;;;;4992810;28;20033;-68
2023/05/11 08:35:39;;;;;;;12.32;4.15;;;;;;;;;;4992748;28;20109;-69
2023/05/11 08:38:05;;;;;;;12.18;4.05;;;;;;;;;;5011992;28;20048;-70
2023/05/11 08:40:30;;;;;;;11.18;3.92;;;;;;;;;;5012397;28;20061;-63
2023/05/11 08:42:58;;;;;;;15.38;3.95;;;;;;;;;;5011716;28;20068;-66
2023/05/11 08:45:24;;;;;;;6.95;3.67;;;;;;;;;;5012253;28;20034;-63
2023/05/11 08:47:52;;;;;;;7.80;3.90;;;;;;;;;;5011667;28;20049;-65
2023/05/11 08:50:17;;;;;;;13.43;3.63;;;;;;;;;;5012147;28;20038;-68
2023/05/11 08:52:43;;;;;;;11.18;3.50;;;;;;;;;;5011787;28;20045;-65
2023/05/11 08:55:09;;;;;;;8.07;3.58;;;;;;;;;;4993338;28;20069;-63
2023/05/11 08:57:35;;;;;;;7.97;3.72;;;;;;;;;;4990829;28;20035;-63
2023/05/11 09:00:02;;;;;;;8.05;3.20;;;;;;;;;;5012161;28;20524;-70
2023/05/11 09:02:28;;;;;;;7.45;3.28;;;;;;;;;;4997768;28;20084;-72
2023/05/11 09:04:54;;;;;;;6.45;3.42;;;;;;;;;;4992414;28;20079;-68
2023/05/11 09:07:21;;;;;;;9.20;3.50;;;;;;;;;;4992446;28;20027;-70
2023/05/11 09:09:47;;;;;;;9.13;3.00;;;;;;;;;;4992548;28;20062;-69
2023/05/11 09:12:13;;;;;;;5.72;3.20;;;;;;;;;;4991509;28;20425;-68
2023/05/11 09:14:38;;;;;;;7.70;3.08;;;;;;;;;;4992321;28;20381;-63
2023/05/11 09:17:05;;;;;;;14.30;3.40;;;;;;;;;;4994129;28;20033;-68
2023/05/11 09:19:30;;;;;;;8.90;3.55;;;;;;;;;;4995885;28;20050;-66
2023/05/11 09:21:58;;;;;;;5.65;3.50;;;;;;;;;;5012712;28;20053;-64
2023/05/11 09:24:23;;;;;;;11.32;3.38;;;;;;;;;;5015388;28;20033;-68
2023/05/11 09:27:04;;;;;;;7.22;3.00;;;;;;;;;;4996775;28;20030;-64
2023/05/11 09:29:30;;;;;;;6.95;3.40;;;;;;;;;;4976251;28;20404;-65
2023/05/11 09:31:55;;;;;;;10.82;3.20;;;;;;;;;;4983530;28;20077;-63
2023/05/11 09:34:22;;;;;;;9.65;3.20;;;;;;;;;;4995525;28;20030;-64
2023/05/11 09:36:48;;;;;;;9.60;3.60;;;;;;;;;;5001192;28;20026;-63
2023/05/11 09:39:15;;;;;;;5.68;3.60;;;;;;;;;;5015283;28;20030;-63
2023/05/11 09:41:41;;;;;;;5.47;3.03;;;;;;;;;;5014690;28;20498;-62
2023/05/11 09:44:15;;;;;;;7.80;3.75;;;;;;;;;;5015207;28;20058;-63
2023/05/11 09:46:43;;;;;;;7.95;3.90;;;;;;;;;;5014535;28;20021;-62
2023/05/11 09:49:09;;;;;;;10.70;3.97;;;;;;;;;;5014747;28;20045;-67
2023/05/11 09:51:36;;;;;;;7.50;3.40;;;;;;;;;;5014806;28;20026;-70
2023/05/11 09:54:22;;;;;;;7.65;3.92;;;;;;;;;;5009800;28;20415;-68
2023/05/11 09:56:59;;;;;;;10.27;3.60;;;;;;;;;;4992980;28;20454;-70
2023/05/11 09:59:38;;;;;;;6.65;3.53;;;;;;;;;;5012113;28;20124;-69
2023/05/11 10:02:26;;;;;;;7.55;3.42;;;;;;;;;;5007851;28;20034;-70
2023/05/11 10:04:59;;;;;;;15.27;3.58;;;;;;;;;;4995275;28;20042;-63
2023/05/11 10:07:34;;;;;;;6.32;3.13;;;;;;;;;;4995095;28;20543;-63
2023/05/11 10:10:05;;;;;;;7.45;2.90;;;;;;;;;;4994952;28;20062;-63
2023/05/11 10:12:32;;;;;;;5.65;2.88;;;;;;;;;;4994955;28;20034;-63
2023/05/11 10:15:04;;;;;;;9.70;3.00;;;;;;;;;;4994941;28;20030;-70
2023/05/11 10:17:30;;;;;;;7.15;2.90;;;;;;;;;;4994894;28;20054;-70
2023/05/11 10:19:57;;;;;;;4.82;3.28;;;;;;;;;;4994835;28;20027;-68
2023/05/11 10:22:27;;;;;;;5.63;3.20;;;;;;;;;;4994701;28;20036;-69
2023/05/11 10:24:55;;;;;;;5.88;3.10;;;;;;;;;;4994704;28;20030;-68
2023/05/11 10:27:21;;;;;;;6.38;3.30;;;;;;;;;;4994592;28;20033;-71
2023/05/11 10:29:47;;;;;;;5.88;3.00;;;;;;;;;;4994489;28;20022;-70
2023/05/11 10:32:15;;;;;;;9.68;3.03;;;;;;;;;;4994458;28;20026;-70
2023/05/11 10:34:42;;;;;;;4.50;2.63;;;;;;;;;;4994577;28;20417;-70
2023/05/11 10:37:08;;;;;;;8.10;3.30;;;;;;;;;;4999518;28;20499;-71
2023/05/11 10:39:36;;;;;;;4.93;2.80;;;;;;;;;;5014015;28;20034;-70
2023/05/11 10:42:46;;;;;;;5.40;2.72;;;;;;;;;;5013774;28;20021;-71
2023/05/11 10:45:14;;;;;;;7.95;3.30;;;;;;;;;;5011860;28;20046;-70
2023/05/11 10:48:13;;;;;;;5.55;2.45;;;;;;;;;;4994636;28;20578;-70
2023/05/11 10:51:12;;;;;;;7.13;2.83;;;;;;;;;;5011621;28;20042;-70
2023/05/11 10:53:53;;;;;;;5.22;2.95;;;;;;;;;;5010905;28;20045;-70
2023/05/11 10:57:05;;;;;;;5.88;2.70;;;;;;;;;;4991865;28;20052;-70
2023/05/11 10:59:52;;;;;;;3.40;2.25;;;;;;;;;;4934046;29;20493;-71
2023/05/11 11:02:18;;;;;;;6.50;3.00;;;;;;;;;;4933622;29;20047;-70
2023/05/11 11:04:48;;;;;;;5.53;3.25;;;;;;;;;;4933901;29;20027;-70
2023/05/11 11:07:17;;;;;;;10.15;2.53;;;;;;;;;;4933662;29;20122;-71
2023/05/11 11:09:56;;;;;;;4.22;2.28;;;;;;;;;;4933846;29;20043;-65
2023/05/11 11:12:25;;;;;;;4.25;2.40;;;;;;;;;;4933614;29;20043;-64
2023/05/11 11:14:58;;;;;;;3.22;1.92;;;;;;;;;;4918130;29;20126;-67
2023/05/11 11:17:26;;;;;;;3.67;2.40;;;;;;;;;;4933646;29;20111;-64
2023/05/11 11:19:52;;;;;;;3.63;2.28;;;;;;;;;;4933775;29;20035;-65
2023/05/11 11:22:33;;;;;;;4.75;1.50;;;;;;;;;;4918948;29;20043;-63
2023/05/11 11:24:59;;;;;;;3.25;1.60;;;;;;;;;;4914609;29;20036;-64
2023/05/11 11:27:39;;;;;;;3.55;1.90;;;;;;;;;;4914492;29;20115;-64
2023/05/11 11:30:21;;;;;;;5.45;2.13;;;;;;;;;;4914313;29;20024;-64
2023/05/11 11:32:49;;;;;;;4.70;2.05;;;;;;;;;;4914333;29;20478;-71
2023/05/11 11:35:43;;;;;;;4.47;2.30;;;;;;;;;;4947839;28;20042;-64
2023/05/11 11:38:19;;;;;;;2.97;1.50;;;;;;;;;;4983853;28;20108;-66
2023/05/11 11:40:51;;;;;;;2.78;1.90;;;;;;;;;;4992138;28;20453;-70
2023/05/11 11:43:20;;;;;;;2.75;1.67;;;;;;;;;;4993340;28;20030;-63
2023/05/11 11:45:56;;;;;;;3.58;1.98;;;;;;;;;;4993412;28;20049;-64
2023/05/11 11:48:39;;;;;;;5.03;1.95;;;;;;;;;;4993148;28;20147;-65
2023/05/11 11:51:12;;;;;;;3.08;1.83;;;;;;;;;;4992977;28;20379;-65
2023/05/11 11:53:42;;;;;;;5.97;2.00;;;;;;;;;;4993113;28;20491;-65
2023/05/11 11:56:27;;;;;;;6.80;2.10;;;;;;;;;;4983283;28;20035;-63
2023/05/11 11:59:00;;;;;;;4.57;1.88;;;;;;;;;;5001182;28;20479;-65
2023/05/11 12:01:44;;;;;;;4.65;1.77;;;;;;;;;;5012871;28;20029;-63
2023/05/11 12:04:32;;;;;;;3.67;1.85;;;;;;;;;;4995390;28;20579;-64
2023/05/11 12:06:58;;;;;;;4.13;1.90;;;;;;;;;;4991627;28;20049;-65
2023/05/11 12:09:24;;;;;;;3.50;1.90;;;;;;;;;;4992939;28;20034;-64
2023/05/11 12:11:51;;;;;;;4.85;2.00;;;;;;;;;;4993076;28;20034;-63
2023/05/11 12:14:17;;;;;;;6.00;2.20;;;;;;;;;;4992943;28;20027;-66
2023/05/11 12:16:42;;;;;;;6.18;1.95;;;;;;;;;;4992899;28;20026;-66
2023/05/11 12:19:08;;;;;;;3.75;2.08;;;;;;;;;;4992978;28;20054;-62
2023/05/11 12:21:33;;;;;;;5.22;1.88;;;;;;;;;;4992749;28;20038;-72
2023/05/11 12:24:03;;;;;;;5.47;2.00;;;;;;;;;;4992866;28;20058;-72
2023/05/11 12:26:29;;;;;;;;;;;;;;;;;;4993276;28;20044;-71
2023/05/11 12:29:12;;;;;;;5.35;2.20;;;;;;;;;;4992890;28;19976;-71
2023/05/11 12:31:42;;;;;;;4.45;2.15;;;;;;;;;;4992755;28;20031;-71
2023/05/11 12:34:20;;;;;;;3.10;1.90;;;;;;;;;;4992710;28;20081;-73
2023/05/11 12:36:46;;;;;;;2.85;1.73;;;;;;;;;;4992429;28;20023;-73
2023/05/11 12:39:23;;;;;;;2.80;1.45;;;;;;;;;;5008283;28;20096;-71
2023/05/11 12:41:51;;;;;;;3.25;1.88;;;;;;;;;;5012282;28;20025;-70
2023/05/11 12:44:18;;;;;;;9.50;2.75;;;;;;;;;;5011903;28;20088;-69
2023/05/11 12:46:48;;;;;;;5.32;2.65;;;;;;;;;;5011120;28;20026;-68
2023/05/11 12:49:25;;;;;;;6.40;2.67;;;;;;;;;;5011686;28;20050;-72
2023/05/11 12:52:01;;;;;;;9.00;2.60;;;;;;;;;;5013270;28;20496;-71
2023/05/11 12:54:26;;;;;;;3.67;2.10;;;;;;;;;;5015667;28;20029;-72
2023/05/11 12:56:52;;;;;;;6.65;2.58;;;;;;;;;;5008269;28;20034;-72
2023/05/11 12:59:38;;;;;;;6.40;1.90;;;;;;;;;;4984641;28;20081;-68
2023/05/11 13:02:16;;;;;;;3.80;2.22;;;;;;;;;;4976741;28;20025;-66
2023/05/11 13:04:43;;;;;;;5.78;2.42;;;;;;;;;;4994739;28;20042;-70
2023/05/11 13:07:09;;;;;;;6.50;2.35;;;;;;;;;;4996382;28;20041;-64
2023/05/11 13:09:36;;;;;;;3.83;2.50;;;;;;;;;;4996226;28;20026;-72
2023/05/11 13:12:14;;;;;;;5.25;2.03;;;;;;;;;;4996189;28;20065;-75
2023/05/11 13:14:40;;;;;;;4.82;2.15;;;;;;;;;;4995988;28;20033;-69
2023/05/11 13:17:06;;;;;;;4.05;2.28;;;;;;;;;;4995940;28;20027;-65
2023/05/11 13:19:32;;;;;;;3.97;2.20;;;;;;;;;;4995852;28;20038;-68
2023/05/11 13:21:58;;;;;;;9.07;2.30;;;;;;;;;;4995962;28;20490;-64
2023/05/11 13:24:24;;;;;;;4.50;2.20;;;;;;;;;;4995659;28;20034;-67
2023/05/11 13:26:50;;;;;;;6.63;2.30;;;;;;;;;;4995943;28;20034;-63
2023/05/11 13:29:16;;;;;;;4.80;2.78;;;;;;;;;;4995631;28;20057;-64
2023/05/11 13:31:42;;;;;;;4.13;2.70;;;;;;;;;;4995733;28;20081;-62
2023/05/11 13:34:08;;;;;;;5.20;2.55;;;;;;;;;;4995381;28;20137;-63
2023/05/11 13:36:33;;;;;;;3.70;2.58;;;;;;;;;;4995530;28;20045;-64
2023/05/11 13:38:59;;;;;;;8.63;2.90;;;;;;;;;;5005810;28;20089;-71
2023/05/11 13:41:24;;;;;;;4.63;2.83;;;;;;;;;;5015052;28;20038;-69
2023/05/11 13:43:50;;;;;;;5.32;2.60;;;;;;;;;;5014842;28;20476;-68
2023/05/11 13:46:15;;;;;;;3.95;2.28;;;;;;;;;;5013596;28;20026;-69
2023/05/11 13:48:41;;;;;;;6.65;3.05;;;;;;;;;;5000169;28;20034;-64
2023/05/11 13:51:06;;;;;;;4.10;2.83;;;;;;;;;;4995041;28;20032;-69
2023/05/11 13:53:32;;;;;;;4.85;2.40;;;;;;;;;;4995464;28;20022;-64
2023/05/11 13:55:58;;;;;;;5.25;2.70;;;;;;;;;;4995381;28;20487;-65
2023/05/11 13:58:23;;;;;;;7.03;2.70;;;;;;;;;;4992386;28;20034;-64
2023/05/11 14:00:48;;;;;;;5.18;2.90;;;;;;;;;;4975754;28;20504;-63
2023/05/11 14:03:14;;;;;;;4.40;2.75;;;;;;;;;;4978212;28;20387;-64
2023/05/11 14:05:40;;;;;;;6.82;2.58;;;;;;;;;;4995092;28;20030;-68
2023/05/11 14:08:05;;;;;;;4.75;2.88;;;;;;;;;;4995076;28;20026;-65
2023/05/11 14:10:31;;;;;;;5.75;2.70;;;;;;;;;;4995010;28;20503;-66
2023/05/11 14:12:56;;;;;;;4.68;2.70;;;;;;;;;;4994965;28;20027;-65
2023/05/11 14:15:21;;;;;;;4.40;2.60;;;;;;;;;;4994856;28;20023;-67
2023/05/11 14:17:47;;;;;;;7.35;2.65;;;;;;;;;;4994751;28;20030;-65
2023/05/11 14:20:13;;;;;;;3.72;2.17;;;;;;;;;;4994654;28;20390;-73
2023/05/11 14:22:39;;;;;;;6.10;2.50;;;;;;;;;;4994743;28;20030;-72
2023/05/11 14:25:05;;;;;;;6.47;2.70;;;;;;;;;;4994788;28;20507;-72
2023/05/11 14:27:31;;;;;;;3.78;2.22;;;;;;;;;;4994860;28;20026;-71
2023/05/11 14:29:56;;;;;;;4.70;2.65;;;;;;;;;;4994730;28;20030;-72
2023/05/11 14:32:22;;;;;;;5.85;2.47;;;;;;;;;;4994275;28;20499;-72
2023/05/11 14:34:47;;;;;;;6.32;2.40;;;;;;;;;;4994467;28;20030;-71
2023/05/11 14:37:13;;;;;;;5.75;2.50;;;;;;;;;;4994323;28;20037;-71
2023/05/11 14:39:39;;;;;;;3.75;2.45;;;;;;;;;;5006968;28;20038;-71
2023/05/11 14:42:05;;;;;;;3.67;2.22;;;;;;;;;;5013924;28;20041;-72
2023/05/11 14:44:31;;;;;;;5.75;2.75;;;;;;;;;;5013828;28;20368;-72
2023/05/11 14:46:57;;;;;;;5.30;2.67;;;;;;;;;;5013745;28;20125;-72